Time;durP1;ratioP1;P1;durP2;ratioP2;P2;SDS_P1;SDS_P2;PMS_P1;PMS_P2;Temp;Humidity;BMP_temperature;BMP_pressure;BME280_temperature;BME280_humidity;BME280_pressure;Samples;Min_cycle;Max_cycle;Signal;HPM_P1;HPM_P2
2024/01/21 17:16:15;;;;;;;1999.90;999.90;;;-1.40;94.70;;;;;;5029665;28;20094;-78
2024/01/21 17:18:47;;;;;;;1999.90;999.90;;;-1.40;94.80;;;;;;4969797;28;20045;-79
2024/01/21 17:21:13;;;;;;;1999.90;999.90;;;-1.50;94.80;;;;;;4956769;28;20527;-78
2024/01/21 17:23:41;;;;;;;1999.90;999.90;;;-1.50;94.80;;;;;;4966944;28;20030;-78
2024/01/21 17:26:12;;;;;;;1999.90;999.90;;;-1.60;93.70;;;;;;4947938;28;20185;-78
2024/01/21 17:28:38;;;;;;;1999.90;999.90;;;-1.70;94.90;;;;;;4952338;28;20035;-78
2024/01/21 17:31:04;;;;;;;1999.90;999.90;;;-1.60;94.30;;;;;;4986994;28;20034;-77
2024/01/21 17:33:30;;;;;;;1999.90;999.90;;;-1.70;93.30;;;;;;4985043;28;20045;-79
2024/01/21 17:35:57;;;;;;;1999.90;999.90;;;-1.80;94.50;;;;;;4989521;28;20043;-79
2024/01/21 17:38:23;;;;;;;1999.90;999.90;;;-1.80;94.30;;;;;;4975789;28;20046;-77
2024/01/21 17:40:49;;;;;;;1999.90;999.90;;;-1.90;95.00;;;;;;4973653;28;20065;-77
2024/01/21 17:43:14;;;;;;;1999.90;999.90;;;-1.90;94.40;;;;;;4941312;28;20050;-78
2024/01/21 17:45:40;;;;;;;1999.90;999.90;;;-1.80;94.00;;;;;;4974316;28;20042;-79
2024/01/21 17:48:07;;;;;;;1999.90;999.90;;;-1.80;93.20;;;;;;4959972;28;20334;-79
2024/01/21 17:50:34;;;;;;;1999.90;999.90;;;-1.80;93.60;;;;;;4991988;28;20071;-75
2024/01/21 17:53:00;;;;;;;1999.90;999.90;;;-1.70;94.10;;;;;;4971085;28;20034;-76
2024/01/21 17:55:26;;;;;;;1999.90;999.90;;;-1.80;93.30;;;;;;4962797;28;20122;-74
2024/01/21 17:57:53;;;;;;;1999.90;999.90;;;-1.80;92.70;;;;;;4990227;28;20039;-77
2024/01/21 18:00:19;;;;;;;1999.90;999.90;;;-1.70;93.20;;;;;;4991053;28;20062;-75
2024/01/21 18:02:45;;;;;;;1999.90;999.90;;;-1.70;92.60;;;;;;4995785;28;20037;-76
2024/01/21 18:05:14;;;;;;;1999.90;999.90;;;-1.70;94.00;;;;;;4975802;28;20088;-78
2024/01/21 18:07:40;;;;;;;1999.90;999.90;;;-1.80;93.40;;;;;;4973897;28;20043;-76
2024/01/21 18:10:07;;;;;;;1999.90;999.90;;;-1.70;94.30;;;;;;4993603;28;20035;-76
2024/01/21 18:12:34;;;;;;;1999.90;999.90;;;-1.70;94.40;;;;;;4978521;28;20165;-77
2024/01/21 18:15:00;;;;;;;1999.90;999.90;;;-1.70;92.90;;;;;;4975045;28;20046;-74
2024/01/21 18:17:28;;;;;;;1999.90;999.90;;;-1.80;94.60;;;;;;5001228;28;20053;-73
2024/01/21 18:19:54;;;;;;;1999.90;999.90;;;-1.90;94.40;;;;;;5010399;28;20048;-74
2024/01/21 18:22:20;;;;;;;1999.90;999.90;;;-1.90;93.60;;;;;;4994444;28;20042;-74
2024/01/21 18:24:50;;;;;;;1999.90;999.90;;;-1.80;93.40;;;;;;5003800;28;20049;-74
2024/01/21 18:27:19;;;;;;;1999.90;999.90;;;-1.70;94.30;;;;;;5009205;28;20152;-74
2024/01/21 18:29:45;;;;;;;1999.90;999.90;;;-1.60;93.40;;;;;;4999631;28;20044;-74
2024/01/21 18:32:13;;;;;;;1999.90;999.90;;;-1.70;94.00;;;;;;4987817;28;20034;-75
2024/01/21 18:34:40;;;;;;;1999.90;999.90;;;-1.60;94.00;;;;;;5013964;28;20038;-75
2024/01/21 18:37:06;;;;;;;1999.90;999.90;;;-1.70;93.30;;;;;;4993499;28;20457;-75
2024/01/21 18:39:33;;;;;;;1999.90;999.90;;;-1.60;94.00;;;;;;5013212;28;20037;-77
2024/01/21 18:41:59;;;;;;;1999.90;999.90;;;-1.70;93.40;;;;;;5003836;28;20105;-75
2024/01/21 18:44:25;;;;;;;1999.90;999.90;;;-1.60;93.40;;;;;;5008263;28;20543;-75
2024/01/21 18:46:54;;;;;;;1999.90;999.90;;;-1.50;92.70;;;;;;4984850;28;20045;-74
2024/01/21 18:49:20;;;;;;;1999.90;999.90;;;-1.60;93.60;;;;;;5002152;28;20053;-73
2024/01/21 18:51:48;;;;;;;1999.90;999.90;;;-1.60;93.10;;;;;;4983412;28;20040;-73
2024/01/21 18:54:14;;;;;;;1999.90;999.90;;;-1.50;93.50;;;;;;4992396;28;20046;-71
2024/01/21 18:56:40;;;;;;;1999.90;999.90;;;-1.50;93.00;;;;;;4964083;28;20158;-70
2024/01/21 18:59:08;;;;;;;1999.90;999.90;;;-1.50;93.50;;;;;;5005036;28;20058;-72
2024/01/21 19:01:33;;;;;;;1999.90;999.90;;;-1.60;93.20;;;;;;5004366;28;20524;-71
2024/01/21 19:03:59;;;;;;;1999.90;999.90;;;-1.60;93.90;;;;;;4990421;28;20056;-71
2024/01/21 19:06:25;;;;;;;1999.90;999.90;;;-1.60;94.30;;;;;;5008516;28;20460;-72
2024/01/21 19:08:52;;;;;;;1999.90;999.90;;;-1.80;93.70;;;;;;4982179;28;20046;-71
2024/01/21 19:11:18;;;;;;;1999.90;999.90;;;-1.90;94.70;;;;;;5007116;28;20073;-71
2024/01/21 19:13:45;;;;;;;1999.90;999.90;;;-2.00;94.10;;;;;;5002753;28;20527;-71
2024/01/21 19:16:11;;;;;;;1999.90;999.90;;;-2.00;94.90;;;;;;4993565;28;20155;-71
2024/01/21 19:18:38;;;;;;;1999.90;999.90;;;-2.10;94.40;;;;;;5005460;28;20038;-72
2024/01/21 19:21:07;;;;;;;1999.90;999.90;;;-2.20;94.60;;;;;;4987020;28;20035;-71
2024/01/21 19:23:33;;;;;;;1999.90;999.90;;;-2.20;95.20;;;;;;4988257;28;20072;-71
2024/01/21 19:26:02;;;;;;;1999.90;999.90;;;-2.20;94.80;;;;;;5004455;28;20044;-71
2024/01/21 19:28:28;;;;;;;1999.90;999.90;;;-2.20;94.60;;;;;;5003978;28;20038;-71
2024/01/21 19:30:54;;;;;;;1999.90;999.90;;;-2.20;94.50;;;;;;4999827;28;20030;-71
2024/01/21 19:33:20;;;;;;;1999.90;999.90;;;-2.30;94.60;;;;;;4982556;28;20048;-71
2024/01/21 19:35:45;;;;;;;1999.90;999.90;;;-2.40;94.30;;;;;;4985069;28;20128;-71
2024/01/21 19:38:12;;;;;;;1999.90;999.90;;;-2.40;94.30;;;;;;5005338;28;20045;-71
2024/01/21 19:40:41;;;;;;;1999.90;999.90;;;-2.40;94.90;;;;;;4989926;28;20145;-71
2024/01/21 19:43:08;;;;;;;1999.90;999.90;;;-2.50;94.70;;;;;;5001520;28;20041;-71
2024/01/21 19:45:33;;;;;;;1999.90;999.90;;;-2.30;94.80;;;;;;4986031;28;20045;-71
2024/01/21 19:47:59;;;;;;;1999.90;999.90;;;-2.40;94.70;;;;;;5002291;28;20104;-71
2024/01/21 19:50:25;;;;;;;1999.90;999.90;;;-2.50;94.60;;;;;;5000235;28;20042;-71
2024/01/21 19:52:51;;;;;;;1999.90;999.90;;;-2.40;95.00;;;;;;4988690;28;20639;-71
2024/01/21 19:55:17;;;;;;;1999.90;999.90;;;-2.40;94.90;;;;;;5000231;28;20149;-71
2024/01/21 19:57:43;;;;;;;1999.90;999.90;;;-2.40;94.80;;;;;;5001638;28;20516;-71
2024/01/21 20:00:09;;;;;;;1999.90;999.90;;;-2.50;94.90;;;;;;5002412;28;20049;-71
2024/01/21 20:02:35;;;;;;;1999.90;999.90;;;-2.60;94.70;;;;;;4965861;28;20177;-70
2024/01/21 20:05:01;;;;;;;1999.90;999.90;;;-2.70;95.20;;;;;;5001810;28;20654;-71
2024/01/21 20:07:27;;;;;;;1999.90;999.90;;;-2.70;95.30;;;;;;4987832;28;20125;-72
2024/01/21 20:09:53;;;;;;;1999.90;999.90;;;-2.80;94.80;;;;;;5002855;28;20041;-72
2024/01/21 20:12:20;;;;;;;1999.90;999.90;;;-2.80;95.40;;;;;;5001336;28;20673;-72
2024/01/21 20:14:46;;;;;;;1999.90;999.90;;;-2.90;95.50;;;;;;4999183;28;20369;-71
2024/01/21 20:17:12;;;;;;;1999.90;999.90;;;-2.90;95.40;;;;;;4983442;28;20060;-72
2024/01/21 20:19:37;;;;;;;1999.90;999.90;;;-2.80;95.60;;;;;;5003766;28;20042;-72
2024/01/21 20:22:03;;;;;;;1999.90;999.90;;;-2.80;95.50;;;;;;5001568;28;20612;-73
2024/01/21 20:24:30;;;;;;;1999.90;999.90;;;-3.00;94.40;;;;;;4984159;28;20129;-72
2024/01/21 20:26:56;;;;;;;1999.90;999.90;;;-2.90;95.30;;;;;;5001215;28;20040;-72
2024/01/21 20:29:23;;;;;;;1999.90;999.90;;;-2.70;95.20;;;;;;4982744;28;20465;-71
2024/01/21 20:31:48;;;;;;;1999.90;999.90;;;-2.60;95.00;;;;;;4999442;28;20038;-72
2024/01/21 20:34:14;;;;;;;1999.90;999.90;;;-2.60;95.10;;;;;;4996392;28;20566;-71
2024/01/21 20:36:42;;;;;;;1999.90;999.90;;;-2.70;95.20;;;;;;4988329;28;20627;-71
2024/01/21 20:39:08;;;;;;;1999.90;999.90;;;-2.90;95.20;;;;;;5003283;28;20080;-71
2024/01/21 20:41:34;;;;;;;1999.90;999.90;;;-2.80;95.20;;;;;;4999158;28;20053;-72
2024/01/21 20:44:01;;;;;;;1999.90;999.90;;;-2.80;95.30;;;;;;4984840;28;20038;-71
2024/01/21 20:46:28;;;;;;;1999.90;999.90;;;-2.90;95.00;;;;;;4975673;28;20157;-71
2024/01/21 20:48:53;;;;;;;1999.90;999.90;;;-2.90;95.50;;;;;;5001123;28;20046;-71
2024/01/21 20:51:19;;;;;;;1999.90;999.90;;;-2.90;95.30;;;;;;4985022;28;20042;-72
2024/01/21 20:53:48;;;;;;;1999.90;999.90;;;-2.90;95.60;;;;;;4994548;28;20047;-72
2024/01/21 20:56:15;;;;;;;1999.90;999.90;;;-2.90;95.60;;;;;;5002538;28;20085;-70
2024/01/21 20:58:41;;;;;;;1999.90;999.90;;;-3.00;95.40;;;;;;5000327;28;20038;-72
2024/01/21 21:01:07;;;;;;;1999.90;999.90;;;-3.00;95.60;;;;;;4990043;28;20042;-71
2024/01/21 21:03:32;;;;;;;1999.90;999.90;;;-3.00;95.30;;;;;;4983667;28;20046;-71
2024/01/21 21:05:58;;;;;;;1999.90;999.90;;;-3.00;95.60;;;;;;4986136;28;20077;-71
2024/01/21 21:08:24;;;;;;;1999.90;999.90;;;-2.90;95.50;;;;;;5005232;28;20065;-72
2024/01/21 21:10:50;;;;;;;1999.90;999.90;;;-2.90;95.50;;;;;;4999344;28;20441;-72
2024/01/21 21:13:21;;;;;;;1999.90;999.90;;;-2.90;95.20;;;;;;4990328;28;20049;-72
2024/01/21 21:15:48;;;;;;;1999.90;999.90;;;-3.10;95.40;;;;;;4996461;28;20030;-72
2024/01/21 21:18:14;;;;;;;1999.90;999.90;;;-3.00;95.70;;;;;;5005363;28;20058;-72
2024/01/21 21:20:40;;;;;;;1999.90;999.90;;;-2.80;95.30;;;;;;4987982;28;20041;-71
2024/01/21 21:23:06;;;;;;;1999.90;999.90;;;-2.80;95.30;;;;;;5002849;28;20514;-71
2024/01/21 21:25:32;;;;;;;1999.90;999.90;;;-2.80;95.30;;;;;;4989181;28;20049;-71
2024/01/21 21:27:57;;;;;;;1999.90;999.90;;;-2.80;95.50;;;;;;4986588;28;20096;-72
2024/01/21 21:30:23;;;;;;;1999.90;999.90;;;-2.90;95.40;;;;;;5002848;28;20249;-72
2024/01/21 21:32:49;;;;;;;1999.90;999.90;;;-2.80;95.30;;;;;;4987770;28;20154;-72
2024/01/21 21:35:14;;;;;;;1999.90;999.90;;;-2.80;95.40;;;;;;5007544;28;20053;-72
2024/01/21 21:37:40;;;;;;;1999.90;999.90;;;-2.80;95.10;;;;;;5006781;28;20042;-72
2024/01/21 21:40:07;;;;;;;1999.90;999.90;;;-2.90;95.40;;;;;;4986196;28;20552;-73
2024/01/21 21:42:33;;;;;;;1999.90;999.90;;;-2.80;95.10;;;;;;5003684;28;20080;-72
2024/01/21 21:44:59;;;;;;;1999.90;999.90;;;-2.80;95.20;;;;;;4989604;28;20330;-71
2024/01/21 21:47:24;;;;;;;1999.90;999.90;;;-2.90;95.30;;;;;;4994465;28;20038;-72
2024/01/21 21:49:51;;;;;;;1999.90;999.90;;;-2.90;95.30;;;;;;5000409;28;20095;-73
2024/01/21 21:52:16;;;;;;;1999.90;999.90;;;-2.90;95.60;;;;;;5008065;28;20038;-73
2024/01/21 21:54:42;;;;;;;1999.90;999.90;;;-3.00;95.60;;;;;;5007419;28;20495;-72
2024/01/21 21:57:08;;;;;;;1999.90;999.90;;;-3.00;95.70;;;;;;4980420;28;20054;-72
2024/01/21 21:59:34;;;;;;;1999.90;999.90;;;-3.00;95.80;;;;;;4999754;28;20045;-72
2024/01/21 22:02:00;;;;;;;1999.90;999.90;;;-2.90;95.20;;;;;;4971046;28;20069;-73
2024/01/21 22:04:26;;;;;;;1999.90;999.90;;;-2.80;95.80;;;;;;4987936;28;20111;-72
2024/01/21 22:06:51;;;;;;;1999.90;999.90;;;-2.90;95.00;;;;;;5005809;28;20496;-72
2024/01/21 22:09:17;;;;;;;1999.90;999.90;;;-2.70;94.60;;;;;;4990442;28;20515;-72
2024/01/21 22:11:46;;;;;;;1999.90;999.90;;;-2.60;94.80;;;;;;5003366;28;20030;-72
2024/01/21 22:14:13;;;;;;;1999.90;999.90;;;-2.70;94.70;;;;;;5005996;28;20034;-72
2024/01/21 22:16:39;;;;;;;1999.90;999.90;;;-2.80;94.80;;;;;;4987126;28;20124;-72
2024/01/21 22:19:08;;;;;;;1999.90;999.90;;;-2.70;94.50;;;;;;5008320;28;20117;-71
2024/01/21 22:21:34;;;;;;;1999.90;999.90;;;-2.70;94.40;;;;;;4985846;28;20041;-71
2024/01/21 22:24:00;;;;;;;1999.90;999.90;;;-2.70;94.90;;;;;;5004856;28;20033;-72
2024/01/21 22:26:25;;;;;;;1999.90;999.90;;;-2.60;94.60;;;;;;5004410;28;20554;-71
2024/01/21 22:28:51;;;;;;;1999.90;999.90;;;-2.70;95.10;;;;;;5006346;28;20138;-72
2024/01/21 22:31:17;;;;;;;1999.90;999.90;;;-2.80;94.50;;;;;;4987102;28;20042;-72
2024/01/21 22:33:43;;;;;;;1999.90;999.90;;;-2.70;95.30;;;;;;4989300;28;20397;-72
2024/01/21 22:36:09;;;;;;;1999.90;999.90;;;-2.70;94.70;;;;;;5004426;28;20065;-73
2024/01/21 22:38:37;;;;;;;1999.90;999.90;;;-2.70;94.20;;;;;;4991813;28;20100;-74
2024/01/21 22:41:04;;;;;;;1999.90;999.90;;;-2.60;94.00;;;;;;4991531;28;20042;-74
2024/01/21 22:43:30;;;;;;;1999.90;999.90;;;-2.50;94.70;;;;;;4988735;28;20034;-72
2024/01/21 22:45:55;;;;;;;1999.90;999.90;;;-2.60;94.90;;;;;;4995423;28;20097;-72
2024/01/21 22:48:21;;;;;;;1999.90;999.90;;;-2.60;94.50;;;;;;4986339;28;20030;-72
2024/01/21 22:50:47;;;;;;;1999.90;999.90;;;-2.50;94.00;;;;;;4995584;28;20042;-71
2024/01/21 22:53:12;;;;;;;1999.90;999.90;;;-2.50;93.80;;;;;;4985134;28;20047;-72
2024/01/21 22:55:38;;;;;;;1999.90;999.90;;;-2.40;94.20;;;;;;4989586;28;20038;-72
2024/01/21 22:58:04;;;;;;;1999.90;999.90;;;-2.30;94.60;;;;;;5002518;28;20045;-73
2024/01/21 23:00:30;;;;;;;1999.90;999.90;;;-2.40;94.20;;;;;;5004897;28;20030;-72
2024/01/21 23:02:57;;;;;;;1999.90;999.90;;;-2.40;93.60;;;;;;4987840;28;20046;-72
2024/01/21 23:05:23;;;;;;;1999.90;999.90;;;-2.40;94.00;;;;;;4991996;28;20462;-72
2024/01/21 23:07:49;;;;;;;1999.90;999.90;;;-2.50;93.30;;;;;;5001319;28;20132;-72
2024/01/21 23:10:15;;;;;;;1999.90;999.90;;;-2.50;94.20;;;;;;4988119;28;20397;-72
2024/01/21 23:12:41;;;;;;;1999.90;999.90;;;-2.70;93.30;;;;;;5004664;28;20093;-73
2024/01/21 23:15:07;;;;;;;1999.90;999.90;;;-2.40;94.10;;;;;;5001911;28;20033;-72
2024/01/21 23:17:33;;;;;;;1999.90;999.90;;;-2.40;94.60;;;;;;4999628;28;20053;-72
2024/01/21 23:19:59;;;;;;;1999.90;999.90;;;-2.50;94.10;;;;;;4986235;28;20433;-72
2024/01/21 23:22:24;;;;;;;1999.90;999.90;;;-2.40;94.50;;;;;;5003401;28;20496;-72
2024/01/21 23:24:50;;;;;;;1999.90;999.90;;;-2.50;93.20;;;;;;4985914;28;20038;-71
2024/01/21 23:27:16;;;;;;;1999.90;999.90;;;-2.40;93.60;;;;;;4968862;28;20038;-72
2024/01/21 23:29:42;;;;;;;1999.90;999.90;;;-2.50;93.90;;;;;;4976880;28;20052;-73
2024/01/21 23:32:12;;;;;;;1999.90;999.90;;;-2.50;93.80;;;;;;5004198;28;20046;-72
2024/01/21 23:34:37;;;;;;;1999.90;999.90;;;-2.50;94.20;;;;;;5006678;28;20045;-72
2024/01/21 23:37:03;;;;;;;1999.90;999.90;;;-2.50;95.00;;;;;;5007932;28;20095;-72
2024/01/21 23:39:29;;;;;;;1999.90;999.90;;;-2.60;94.60;;;;;;5003399;28;20176;-72
2024/01/21 23:41:54;;;;;;;1999.90;999.90;;;-2.50;93.50;;;;;;4990428;28;20080;-72
2024/01/21 23:44:20;;;;;;;1999.90;999.90;;;-2.50;94.50;;;;;;5005768;28;20041;-71
2024/01/21 23:46:47;;;;;;;1999.90;999.90;;;-2.50;94.20;;;;;;5007935;28;20552;-73
2024/01/21 23:49:13;;;;;;;1999.90;999.90;;;-2.50;93.50;;;;;;4989707;28;20042;-73
2024/01/21 23:51:45;;;;;;;1999.90;999.90;;;-2.50;94.40;;;;;;5001870;28;20082;-71
2024/01/21 23:54:11;;;;;;;1999.90;999.90;;;-2.50;94.00;;;;;;5004519;28;20034;-72
2024/01/21 23:56:47;;;;;;;1999.90;999.90;;;-2.50;93.90;;;;;;5002687;28;20058;-72
2024/01/21 23:59:14;;;;;;;1999.90;999.90;;;-2.60;94.20;;;;;;5004970;28;20076;-72
